createdAt,value
2017-09-23T00:00:23.457Z,9.43
2017-09-23T00:01:23.404Z,9.39
2017-09-23T00:02:23.359Z,9.36
2017-09-23T00:03:23.344Z,9.39
2017-09-23T00:04:23.335Z,9.47
2017-09-23T00:05:23.303Z,9.50
2017-09-23T00:06:23.284Z,9.47
2017-09-23T00:07:23.264Z,9.50
2017-09-23T00:08:23.255Z,9.51
2017-09-23T00:09:23.244Z,9.50
2017-09-23T00:10:23.197Z,9.51
2017-09-23T00:11:23.190Z,9.56
2017-09-23T00:12:23.260Z,9.50
2017-09-23T00:13:23.154Z,9.48
2017-09-23T00:14:23.146Z,9.55
2017-09-23T00:15:23.114Z,9.56
2017-09-23T00:16:23.137Z,9.62
2017-09-23T00:17:23.081Z,9.62
2017-09-23T00:18:23.061Z,9.64
2017-09-23T00:19:23.048Z,9.56
2017-09-23T00:20:23.039Z,9.65
2017-09-23T00:21:23.031Z,9.69
2017-09-23T00:22:22.974Z,9.74
2017-09-23T00:23:22.969Z,9.69
2017-09-23T00:24:22.946Z,9.76
2017-09-23T00:25:22.927Z,9.87
2017-09-23T00:26:22.946Z,9.87
2017-09-23T00:27:22.896Z,9.97
2017-09-23T00:28:22.881Z,10.01
2017-09-23T00:29:22.866Z,9.98
2017-09-23T00:30:22.839Z,10.01
2017-09-23T00:31:22.867Z,9.97
2017-09-23T00:32:22.806Z,9.95
2017-09-23T00:33:22.837Z,9.98
2017-09-23T00:34:22.768Z,9.97
2017-09-23T00:35:22.795Z,9.98
2017-09-23T00:36:22.736Z,9.98
2017-09-23T00:37:22.715Z,9.98
2017-09-23T00:38:22.747Z,9.97
2017-09-23T00:39:22.668Z,10.01
2017-09-23T00:40:22.652Z,10.02
2017-09-23T00:41:22.684Z,10.05
2017-09-23T00:42:22.616Z,10.02
2017-09-23T00:43:22.602Z,10.17
2017-09-23T00:44:22.599Z,10.20
2017-09-23T00:45:22.571Z,10.25
2017-09-23T00:46:22.571Z,10.28
2017-09-23T00:47:22.547Z,10.30
2017-09-23T00:48:22.537Z,10.35
2017-09-23T00:49:22.485Z,10.48
2017-09-23T00:50:22.470Z,10.53
2017-09-23T00:51:22.446Z,10.53
2017-09-23T00:52:22.430Z,10.46
2017-09-23T00:53:22.414Z,10.54
2017-09-23T00:54:22.397Z,10.54
2017-09-23T00:55:22.377Z,10.63
2017-09-23T00:56:22.375Z,10.57
2017-09-23T00:57:22.336Z,10.60
2017-09-23T00:58:22.319Z,10.61
2017-09-23T00:59:22.302Z,10.74
2017-09-23T01:00:22.296Z,10.68
2017-09-23T01:01:22.274Z,10.75
2017-09-23T01:02:22.244Z,10.74
2017-09-23T01:03:22.235Z,10.67
2017-09-23T01:04:22.219Z,10.78
2017-09-23T01:05:22.208Z,10.76
2017-09-23T01:06:22.183Z,10.76
2017-09-23T01:07:22.159Z,10.78
2017-09-23T01:08:22.144Z,10.79
2017-09-23T01:09:22.197Z,10.78
2017-09-23T01:10:22.104Z,10.81
2017-09-23T01:11:22.080Z,10.81
2017-09-23T01:12:22.067Z,10.78
2017-09-23T01:13:22.066Z,10.79
2017-09-23T01:14:22.019Z,10.79
2017-09-23T01:15:22.024Z,10.75
2017-09-23T01:16:22.004Z,10.67
2017-09-23T01:17:21.982Z,10.67
2017-09-23T01:18:21.978Z,10.71
2017-09-23T01:19:21.930Z,10.60
2017-09-23T01:20:21.965Z,10.64
2017-09-23T01:21:21.909Z,10.71
2017-09-23T01:22:21.937Z,10.61
2017-09-23T01:23:21.877Z,10.57
2017-09-23T01:24:21.861Z,10.61
2017-09-23T01:25:21.865Z,10.56
2017-09-23T01:26:21.816Z,10.60
2017-09-23T01:27:21.856Z,10.53
2017-09-23T01:28:21.783Z,10.74
2017-09-23T01:29:21.757Z,10.57
2017-09-23T01:30:21.735Z,10.67
2017-09-23T01:31:21.715Z,10.69
2017-09-23T01:32:21.708Z,10.67
2017-09-23T01:33:21.848Z,10.68
2017-09-23T01:34:21.670Z,10.69
2017-09-23T01:35:21.660Z,10.71
2017-09-23T01:36:21.670Z,10.68
2017-09-23T01:37:21.627Z,10.64
2017-09-23T01:38:21.584Z,10.72
2017-09-23T01:39:21.584Z,10.68
2017-09-23T01:40:21.565Z,10.69
2017-09-23T01:41:21.611Z,10.61
2017-09-23T01:42:21.542Z,10.67
2017-09-23T01:43:21.569Z,10.60
2017-09-23T01:44:21.489Z,10.61
2017-09-23T01:45:21.468Z,10.68
2017-09-23T01:46:21.487Z,10.68
2017-09-23T01:47:21.432Z,10.69
2017-09-23T01:48:21.406Z,10.63
2017-09-23T01:49:21.495Z,10.67
2017-09-23T01:50:21.398Z,10.61
2017-09-23T01:51:21.358Z,10.63
2017-09-23T01:52:21.375Z,10.61
2017-09-23T01:53:21.320Z,10.59
2017-09-23T01:54:21.310Z,10.60
2017-09-23T01:55:21.283Z,10.51
2017-09-23T01:56:21.307Z,10.59
2017-09-23T01:57:21.241Z,10.38
2017-09-23T01:58:21.276Z,10.48
2017-09-23T01:59:21.225Z,10.41
2017-09-23T02:00:21.200Z,10.53
2017-09-23T02:01:21.213Z,10.40
2017-09-23T02:02:21.171Z,10.40
2017-09-23T02:03:21.179Z,10.48
2017-09-23T02:04:21.114Z,10.49
2017-09-23T02:05:21.153Z,10.48
2017-09-23T02:06:21.091Z,10.57
2017-09-23T02:07:21.064Z,10.51
2017-09-23T02:08:21.144Z,10.54
2017-09-23T02:09:21.021Z,10.57
2017-09-23T02:10:21.017Z,10.54
2017-09-23T02:11:20.997Z,10.60
2017-09-23T02:12:20.980Z,10.71
2017-09-23T02:13:20.951Z,10.67
2017-09-23T02:14:20.945Z,10.64
2017-09-23T02:15:20.914Z,10.71
2017-09-23T02:16:20.956Z,10.69
2017-09-23T02:17:20.882Z,10.67
2017-09-23T02:18:20.874Z,10.60
2017-09-23T02:19:20.858Z,10.59
2017-09-23T02:20:20.829Z,10.63
2017-09-23T02:21:20.802Z,10.64
2017-09-23T02:22:20.805Z,10.63
2017-09-23T02:23:20.820Z,10.69
2017-09-23T02:24:20.755Z,10.72
2017-09-23T02:25:20.727Z,10.61
2017-09-23T02:26:20.722Z,10.74
2017-09-23T02:27:20.725Z,10.72
2017-09-23T02:28:20.691Z,10.72
2017-09-23T02:29:20.683Z,10.74
2017-09-23T02:30:20.641Z,10.71
2017-09-23T02:31:20.644Z,10.69
2017-09-23T02:32:20.605Z,10.67
2017-09-23T02:33:20.582Z,10.54
2017-09-23T02:34:20.580Z,10.51
2017-09-23T02:35:20.593Z,10.53
2017-09-23T02:36:20.539Z,10.56
2017-09-23T02:37:20.511Z,10.57
2017-09-23T02:38:20.497Z,10.56
2017-09-23T02:39:20.523Z,10.61
2017-09-23T02:40:20.463Z,10.60
2017-09-23T02:41:20.461Z,10.64
2017-09-23T02:42:20.492Z,10.63
2017-09-23T02:43:20.410Z,10.75
2017-09-23T02:44:20.385Z,10.78
2017-09-23T02:45:20.372Z,10.76
2017-09-23T02:46:20.354Z,10.78
2017-09-23T02:47:20.357Z,10.76
2017-09-23T02:48:20.324Z,10.76
2017-09-23T02:49:20.320Z,10.78
2017-09-23T02:50:20.308Z,10.90
2017-09-23T02:51:20.264Z,10.92
2017-09-23T02:52:20.302Z,10.90
2017-09-23T02:53:20.244Z,10.96
2017-09-23T02:54:20.212Z,10.89
2017-09-23T02:55:20.186Z,10.96
2017-09-23T02:56:20.174Z,10.97
2017-09-23T02:57:20.167Z,10.92
2017-09-23T02:58:20.143Z,10.94
2017-09-23T02:59:20.118Z,10.97
2017-09-23T03:00:20.151Z,10.96
2017-09-23T03:01:20.112Z,10.90
2017-09-23T03:02:20.144Z,11.04
2017-09-23T03:03:20.072Z,10.99
2017-09-23T03:04:20.037Z,10.89
2017-09-23T03:05:20.012Z,10.89
2017-09-23T03:06:20.027Z,10.84
2017-09-23T03:07:20.024Z,10.82
2017-09-23T03:08:19.955Z,10.79
2017-09-23T03:09:19.934Z,10.79
2017-09-23T03:10:19.917Z,10.71
2017-09-23T03:11:19.896Z,10.69
2017-09-23T03:12:19.909Z,10.74
2017-09-23T03:13:19.877Z,10.71
2017-09-23T03:14:19.846Z,10.69
2017-09-23T03:15:19.835Z,10.68
2017-09-23T03:16:19.797Z,10.53
2017-09-23T03:17:19.791Z,10.57
2017-09-23T03:18:19.858Z,10.53
2017-09-23T03:19:19.759Z,10.40
2017-09-23T03:20:19.732Z,10.41
2017-09-23T03:21:19.773Z,10.41
2017-09-23T03:22:19.703Z,10.40
2017-09-23T03:23:19.673Z,10.37
2017-09-23T03:24:19.695Z,10.41
2017-09-23T03:25:19.639Z,10.44
2017-09-23T03:26:19.628Z,10.35
2017-09-23T03:27:19.665Z,10.44
2017-09-23T03:28:19.575Z,10.42
2017-09-23T03:29:19.705Z,10.40
2017-09-23T03:30:19.547Z,10.37
2017-09-23T03:31:19.523Z,10.35
2017-09-23T03:32:19.582Z,10.35
2017-09-23T03:33:19.502Z,10.41
2017-09-23T03:34:19.463Z,10.44
2017-09-23T03:35:19.464Z,10.35
2017-09-23T03:36:19.451Z,10.35
2017-09-23T03:37:19.420Z,10.42
2017-09-23T03:38:19.469Z,10.42
2017-09-23T03:39:19.385Z,10.49
2017-09-23T03:40:19.366Z,10.51
2017-09-23T03:41:19.362Z,10.57
2017-09-23T03:42:19.397Z,10.41
2017-09-23T03:43:19.404Z,10.51
2017-09-23T03:44:19.297Z,10.40
2017-09-23T03:45:19.281Z,10.42
2017-09-23T03:46:19.285Z,10.42
2017-09-23T03:47:19.230Z,10.42
2017-09-23T03:48:19.270Z,10.41
2017-09-23T03:49:19.198Z,10.34
2017-09-23T03:50:19.185Z,10.41
2017-09-23T03:51:19.161Z,10.42
2017-09-23T03:52:19.164Z,10.37
2017-09-23T03:53:19.177Z,10.41
2017-09-23T03:54:19.162Z,10.28
2017-09-23T03:55:19.096Z,10.38
2017-09-23T03:56:19.084Z,10.33
2017-09-23T03:57:19.073Z,10.25
2017-09-23T03:58:19.091Z,10.25
2017-09-23T03:59:19.016Z,10.34
2017-09-23T04:00:18.988Z,10.30
2017-09-23T04:01:18.978Z,10.34
2017-09-23T04:02:18.998Z,10.40
2017-09-23T04:03:18.949Z,10.35
2017-09-23T04:04:18.938Z,10.37
2017-09-23T04:05:18.955Z,10.46
2017-09-23T04:06:18.917Z,10.41
2017-09-23T04:07:18.860Z,10.42
2017-09-23T04:08:18.859Z,10.40
2017-09-23T04:09:18.828Z,10.41
2017-09-23T04:10:18.817Z,10.40
2017-09-23T04:11:18.797Z,10.41
2017-09-23T04:12:18.775Z,10.46
2017-09-23T04:13:18.761Z,10.37
2017-09-23T04:14:18.760Z,10.40
2017-09-23T04:15:18.766Z,10.34
2017-09-23T04:16:18.714Z,10.34
2017-09-23T04:17:18.682Z,10.33
2017-09-23T04:18:18.667Z,10.34
2017-09-23T04:19:18.652Z,10.30
2017-09-23T04:20:18.638Z,10.33
2017-09-23T04:21:18.606Z,10.31
2017-09-23T04:22:18.591Z,10.28
2017-09-23T04:23:18.565Z,10.31
2017-09-23T04:24:18.576Z,10.31
2017-09-23T04:25:18.592Z,10.26
2017-09-23T04:26:18.516Z,10.20
2017-09-23T04:27:18.499Z,10.12
2017-09-23T04:28:18.509Z,10.15
2017-09-23T04:29:19.142Z,10.19
2017-09-23T04:30:18.452Z,10.17
2017-09-23T04:31:18.451Z,10.19
2017-09-23T04:32:18.402Z,10.19
2017-09-23T04:33:18.383Z,10.26
2017-09-23T04:34:18.366Z,10.31
2017-09-23T04:35:18.345Z,10.30
2017-09-23T04:36:18.335Z,10.33
2017-09-23T04:37:18.320Z,10.31
2017-09-23T04:38:18.287Z,10.25
2017-09-23T04:39:18.272Z,10.30
2017-09-23T04:40:18.262Z,10.25
2017-09-23T04:41:18.237Z,10.33
2017-09-23T04:42:18.222Z,10.28
2017-09-23T04:43:18.195Z,10.34
2017-09-23T04:44:18.192Z,10.34
2017-09-23T04:45:18.170Z,10.31
2017-09-23T04:46:18.149Z,10.30
2017-09-23T04:47:18.176Z,10.31
2017-09-23T04:48:18.118Z,10.31
2017-09-23T04:49:18.098Z,10.31
2017-09-23T04:50:18.067Z,10.33
2017-09-23T04:51:18.056Z,10.25
2017-09-23T04:52:18.056Z,10.34
2017-09-23T04:53:18.019Z,10.37
2017-09-23T04:54:18.017Z,10.38
2017-09-23T04:55:17.975Z,10.30
2017-09-23T04:56:17.971Z,10.38
2017-09-23T04:57:18.037Z,10.33
2017-09-23T04:58:17.943Z,10.37
2017-09-23T04:59:17.913Z,10.34
2017-09-23T05:00:17.945Z,10.37
2017-09-23T05:01:17.881Z,10.35
2017-09-23T05:02:17.867Z,10.37
2017-09-23T05:03:17.846Z,10.42
2017-09-23T05:04:17.830Z,10.41
2017-09-23T05:05:17.912Z,10.37
2017-09-23T05:06:17.785Z,10.42
2017-09-23T05:07:17.820Z,10.42
2017-09-23T05:08:17.741Z,10.53
2017-09-23T05:09:17.748Z,10.49
2017-09-23T05:10:17.826Z,10.56
2017-09-23T05:11:17.698Z,10.51
2017-09-23T05:12:17.775Z,10.51
2017-09-23T05:13:17.672Z,10.40
2017-09-23T05:14:17.630Z,10.40
2017-09-23T05:15:17.621Z,10.40
2017-09-23T05:16:17.609Z,10.54
2017-09-23T05:17:17.572Z,10.44
2017-09-23T05:18:17.582Z,10.51
2017-09-23T05:19:17.545Z,10.48
2017-09-23T05:20:17.519Z,10.56
2017-09-23T05:21:17.560Z,10.41
2017-09-23T05:22:17.482Z,10.51
2017-09-23T05:23:17.467Z,10.46
2017-09-23T05:24:17.619Z,10.53
2017-09-23T05:25:17.451Z,10.49
2017-09-23T05:26:17.441Z,10.56
2017-09-23T05:27:17.410Z,10.56
2017-09-23T05:28:17.381Z,10.56
2017-09-23T05:29:17.373Z,10.61
2017-09-23T05:30:17.336Z,10.56
2017-09-23T05:31:17.319Z,10.60
2017-09-23T05:32:17.300Z,10.54
2017-09-23T05:33:17.325Z,10.64
2017-09-23T05:34:17.264Z,10.68
2017-09-23T05:35:17.242Z,10.60
2017-09-23T05:36:17.233Z,10.67
2017-09-23T05:37:17.202Z,10.71
2017-09-23T05:38:17.196Z,10.63
2017-09-23T05:39:17.165Z,10.67
2017-09-23T05:40:17.159Z,10.69
2017-09-23T05:41:17.230Z,10.74
2017-09-23T05:42:17.131Z,10.71
2017-09-23T05:43:17.112Z,10.78
2017-09-23T05:44:17.295Z,10.87
2017-09-23T05:45:17.074Z,10.74
2017-09-23T05:46:17.043Z,10.93
2017-09-23T05:47:17.037Z,10.89
2017-09-23T05:48:17.001Z,10.89
2017-09-23T05:49:16.999Z,10.94
2017-09-23T05:50:16.971Z,10.97
2017-09-23T05:51:16.967Z,10.99
2017-09-23T05:52:17.002Z,10.97
2017-09-23T05:53:16.926Z,10.97
2017-09-23T05:54:16.946Z,11.05
2017-09-23T05:55:16.877Z,10.93
2017-09-23T05:56:16.864Z,11.10
2017-09-23T05:57:16.845Z,11.08
2017-09-23T05:58:16.834Z,11.07
2017-09-23T05:59:16.810Z,11.08
2017-09-23T06:00:16.789Z,11.08
2017-09-23T06:01:16.811Z,11.11
2017-09-23T06:02:16.774Z,11.11
2017-09-23T06:03:16.778Z,11.17
2017-09-23T06:04:16.720Z,11.11
2017-09-23T06:05:16.722Z,11.14
2017-09-23T06:06:16.673Z,11.19
2017-09-23T06:07:16.669Z,11.22
2017-09-23T06:08:16.649Z,11.22
2017-09-23T06:09:16.629Z,11.30
2017-09-23T06:10:16.595Z,11.18
2017-09-23T06:11:16.577Z,11.18
2017-09-23T06:12:16.582Z,11.14
2017-09-23T06:13:16.560Z,11.08
2017-09-23T06:14:16.535Z,11.14
2017-09-23T06:15:16.511Z,11.17
2017-09-23T06:16:16.538Z,11.22
2017-09-23T06:17:16.483Z,11.17
2017-09-23T06:18:16.454Z,11.22
2017-09-23T06:19:16.433Z,11.19
2017-09-23T06:20:16.434Z,11.25
2017-09-23T06:21:16.490Z,11.29
2017-09-23T06:22:16.388Z,11.17
2017-09-23T06:23:16.365Z,11.15
2017-09-23T06:24:16.449Z,11.18
2017-09-23T06:25:16.330Z,11.22
2017-09-23T06:26:16.310Z,11.23
2017-09-23T06:27:16.332Z,11.26
2017-09-23T06:28:16.272Z,11.30
2017-09-23T06:29:16.259Z,11.29
2017-09-23T06:30:16.289Z,11.32
2017-09-23T06:31:16.278Z,11.40
2017-09-23T06:32:16.201Z,11.47
2017-09-23T06:33:16.194Z,11.50
2017-09-23T06:34:16.268Z,11.52
2017-09-23T06:35:16.139Z,11.63
2017-09-23T06:36:16.170Z,11.62
2017-09-23T06:37:16.108Z,11.63
2017-09-23T06:38:16.119Z,11.72
2017-09-23T06:39:16.091Z,11.84
2017-09-23T06:40:16.051Z,11.90
2017-09-23T06:41:16.042Z,12.00
2017-09-23T06:42:16.015Z,11.99
2017-09-23T06:43:16.020Z,12.03
2017-09-23T06:44:15.978Z,12.18
2017-09-23T06:45:15.982Z,12.25
2017-09-23T06:46:15.950Z,12.35
2017-09-23T06:47:16.034Z,12.36
2017-09-23T06:48:15.905Z,12.46
2017-09-23T06:49:15.892Z,12.57
2017-09-23T06:50:15.868Z,12.64
2017-09-23T06:51:15.865Z,12.62
2017-09-23T06:52:15.938Z,12.72
2017-09-23T06:53:15.864Z,12.72
2017-09-23T06:54:15.841Z,12.83
2017-09-23T06:55:15.813Z,12.87
2017-09-23T06:56:15.775Z,12.86
2017-09-23T06:57:15.775Z,12.80
2017-09-23T06:58:15.741Z,12.75
2017-09-23T06:59:15.767Z,12.91
2017-09-23T07:00:15.725Z,12.95
2017-09-23T07:01:15.743Z,12.94
2017-09-23T07:02:15.704Z,12.95
2017-09-23T07:03:15.678Z,13.03
2017-09-23T07:04:15.631Z,13.01
2017-09-23T07:05:15.608Z,12.98
2017-09-23T07:06:15.593Z,12.93
2017-09-23T07:07:15.679Z,13.09
2017-09-23T07:08:15.562Z,12.97
2017-09-23T07:09:15.566Z,13.03
2017-09-23T07:10:16.181Z,13.03
2017-09-23T07:11:15.505Z,13.09
2017-09-23T07:12:15.480Z,13.16
2017-09-23T07:13:15.530Z,13.16
2017-09-23T07:14:15.467Z,13.23
2017-09-23T07:15:15.448Z,13.30
2017-09-23T07:16:15.430Z,13.38
2017-09-23T07:17:15.404Z,13.47
2017-09-23T07:18:15.379Z,13.63
2017-09-23T07:19:15.367Z,13.77
2017-09-23T07:20:15.357Z,13.86
2017-09-23T07:21:15.342Z,13.96
2017-09-23T07:22:15.312Z,13.87
2017-09-23T07:23:15.329Z,14.03
2017-09-23T07:24:15.324Z,14.00
2017-09-23T07:25:15.279Z,14.07
2017-09-23T07:26:15.248Z,14.11
2017-09-23T07:27:15.225Z,14.14
2017-09-23T07:28:15.256Z,14.22
2017-09-23T07:29:15.190Z,14.36
2017-09-23T07:30:15.187Z,14.44
2017-09-23T07:31:15.167Z,14.54
2017-09-23T07:32:15.159Z,14.65
2017-09-23T07:33:15.205Z,14.68
2017-09-23T07:34:15.153Z,14.79
2017-09-23T07:35:15.094Z,14.88
2017-09-23T07:36:15.078Z,14.89
2017-09-23T07:37:15.072Z,14.79
2017-09-23T07:38:15.038Z,14.96
2017-09-23T07:39:15.019Z,14.86
2017-09-23T07:40:15.031Z,14.99
2017-09-23T07:41:15.022Z,15.03
2017-09-23T07:42:15.033Z,15.00
2017-09-23T07:43:14.961Z,15.10
2017-09-23T07:44:14.949Z,15.28
2017-09-23T07:45:14.938Z,15.35
2017-09-23T07:46:14.918Z,15.46
2017-09-23T07:47:14.896Z,15.67
2017-09-23T07:48:14.908Z,15.79
2017-09-23T07:49:14.871Z,15.84
2017-09-23T07:50:14.856Z,16.08
2017-09-23T07:51:14.834Z,16.24
2017-09-23T07:52:14.830Z,16.28
2017-09-23T07:53:14.806Z,16.47
2017-09-23T07:54:14.795Z,16.68
2017-09-23T07:55:14.799Z,16.66
2017-09-23T07:56:14.828Z,16.81
2017-09-23T07:57:14.748Z,16.71
2017-09-23T07:58:14.788Z,16.79
2017-09-23T07:59:14.702Z,16.97
2017-09-23T08:00:14.685Z,17.19
2017-09-23T08:01:14.738Z,17.54
2017-09-23T08:02:14.663Z,18.22
2017-09-23T08:03:14.645Z,19.19
2017-09-23T08:04:14.628Z,20.03
2017-09-23T08:05:14.602Z,20.62
2017-09-23T08:06:14.589Z,21.32
2017-09-23T08:07:14.590Z,22.11
2017-09-23T08:08:14.563Z,23.02
2017-09-23T08:09:14.545Z,23.81
2017-09-23T08:10:14.549Z,24.57
2017-09-23T08:11:14.543Z,24.98
2017-09-23T08:12:14.514Z,25.41
2017-09-23T08:13:14.491Z,25.51
2017-09-23T08:14:14.485Z,25.43
2017-09-23T08:15:15.017Z,25.21
2017-09-23T08:16:14.444Z,25.08
2017-09-23T08:17:14.427Z,24.91
2017-09-23T08:18:14.435Z,24.43
2017-09-23T08:19:14.408Z,23.98
2017-09-23T08:20:14.386Z,23.71
2017-09-23T08:21:15.625Z,23.93
2017-09-23T08:22:14.377Z,24.42
2017-09-23T08:23:14.420Z,24.93
2017-09-23T08:24:14.331Z,25.31
2017-09-23T08:25:14.318Z,25.85
2017-09-23T08:26:14.305Z,26.33
2017-09-23T08:27:14.303Z,26.62
2017-09-23T08:28:14.289Z,27.08
2017-09-23T08:29:14.267Z,27.30
2017-09-23T08:30:14.249Z,27.73
2017-09-23T08:31:14.248Z,28.04
2017-09-23T08:32:14.236Z,28.42
2017-09-23T08:33:14.214Z,28.52
2017-09-23T08:34:14.200Z,28.54
2017-09-23T08:35:14.184Z,28.75
2017-09-23T08:36:14.185Z,29.04
2017-09-23T08:37:14.173Z,29.19
2017-09-23T08:38:14.180Z,29.34
2017-09-23T08:39:15.721Z,29.54
2017-09-23T08:40:14.126Z,29.60
2017-09-23T08:41:14.116Z,29.56
2017-09-23T08:42:14.096Z,29.38
2017-09-23T08:43:14.100Z,29.32
2017-09-23T08:44:14.089Z,29.42
2017-09-23T08:45:14.067Z,29.59
2017-09-23T08:46:14.047Z,29.91
2017-09-23T08:47:14.072Z,30.31
2017-09-23T08:48:14.034Z,30.66
2017-09-23T08:49:14.025Z,31.18
2017-09-23T08:50:14.002Z,31.62
2017-09-23T08:51:13.994Z,32.01
2017-09-23T08:52:14.004Z,32.46
2017-09-23T08:53:13.971Z,32.73
2017-09-23T08:54:13.961Z,32.83
2017-09-23T08:55:13.947Z,32.82
2017-09-23T08:56:13.943Z,32.52
2017-09-23T08:57:13.937Z,32.16
2017-09-23T08:58:14.009Z,31.76
2017-09-23T08:59:13.899Z,31.49
2017-09-23T09:00:13.887Z,31.43
2017-09-23T09:01:13.887Z,31.39
2017-09-23T09:02:13.872Z,31.22
2017-09-23T09:03:13.857Z,30.94
2017-09-23T09:04:13.852Z,30.87
2017-09-23T09:05:13.848Z,31.21
2017-09-23T09:06:13.836Z,31.61
2017-09-23T09:07:13.827Z,31.87
2017-09-23T09:08:13.920Z,32.34
2017-09-23T09:09:13.804Z,32.67
2017-09-23T09:10:13.826Z,33.00
2017-09-23T09:11:13.796Z,33.34
2017-09-23T09:12:13.813Z,33.50
2017-09-23T09:13:13.793Z,33.08
2017-09-23T09:14:13.938Z,32.73
2017-09-23T09:15:13.762Z,32.36
2017-09-23T09:16:13.768Z,32.38
2017-09-23T09:17:13.756Z,32.37
2017-09-23T09:18:13.760Z,32.73
2017-09-23T09:19:13.746Z,33.07
2017-09-23T09:20:13.762Z,33.55
2017-09-23T09:21:13.762Z,33.87
2017-09-23T09:22:13.743Z,33.95
2017-09-23T09:23:13.739Z,34.21
2017-09-23T09:24:13.734Z,34.47
2017-09-23T09:25:13.727Z,34.67
2017-09-23T09:26:13.792Z,34.57
2017-09-23T09:27:13.715Z,34.66
2017-09-23T09:28:13.723Z,34.43
2017-09-23T09:29:13.733Z,34.47
2017-09-23T09:30:13.719Z,34.62
2017-09-23T09:31:13.726Z,34.89
2017-09-23T09:32:13.741Z,34.90
2017-09-23T09:33:13.709Z,34.96
2017-09-23T09:34:13.711Z,35.07
2017-09-23T09:35:13.708Z,35.11
2017-09-23T09:36:13.830Z,35.39
2017-09-23T09:37:13.700Z,35.52
2017-09-23T09:38:13.701Z,35.82
2017-09-23T09:39:13.723Z,36.07
2017-09-23T09:40:13.702Z,36.23
2017-09-23T09:41:13.708Z,36.59
2017-09-23T09:42:13.698Z,36.61
2017-09-23T09:43:13.697Z,36.35
2017-09-23T09:44:13.712Z,36.36
2017-09-23T09:45:13.700Z,36.36
2017-09-23T09:46:13.726Z,36.35
2017-09-23T09:47:13.727Z,36.58
2017-09-23T09:48:13.707Z,36.68
2017-09-23T09:49:13.701Z,36.49
2017-09-23T09:50:13.702Z,36.43
2017-09-23T09:51:13.897Z,36.39
2017-09-23T09:52:13.699Z,36.37
2017-09-23T09:53:13.721Z,36.43
2017-09-23T09:54:13.710Z,36.55
2017-09-23T09:55:13.708Z,36.80
2017-09-23T09:56:14.542Z,36.93
2017-09-23T09:57:13.712Z,36.80
2017-09-23T09:58:13.725Z,36.83
2017-09-23T09:59:13.704Z,36.95
2017-09-23T10:00:13.712Z,37.25
2017-09-23T10:01:13.704Z,37.21
2017-09-23T10:02:13.718Z,37.32
2017-09-23T10:03:13.828Z,37.45
2017-09-23T10:04:13.733Z,37.64
2017-09-23T10:05:13.723Z,37.86
2017-09-23T10:06:13.727Z,38.06
2017-09-23T10:07:13.724Z,38.12
2017-09-23T10:08:13.724Z,38.12
2017-09-23T10:09:13.744Z,38.05
2017-09-23T10:10:13.733Z,38.04
2017-09-23T10:11:13.735Z,37.37
2017-09-23T10:12:13.721Z,36.37
2017-09-23T10:13:13.724Z,35.44
2017-09-23T10:14:13.778Z,34.80
2017-09-23T10:15:13.739Z,34.25
2017-09-23T10:16:13.736Z,33.83
2017-09-23T10:17:13.749Z,33.30
2017-09-23T10:18:13.760Z,32.64
2017-09-23T10:19:13.742Z,31.90
2017-09-23T10:20:13.751Z,31.77
2017-09-23T10:21:13.759Z,31.71
2017-09-23T10:22:13.731Z,31.21
2017-09-23T10:23:13.765Z,30.72
2017-09-23T10:24:13.735Z,30.31
2017-09-23T10:25:13.743Z,29.66
2017-09-23T10:26:13.737Z,29.20
2017-09-23T10:27:13.741Z,28.69
2017-09-23T10:28:13.733Z,28.25
2017-09-23T10:29:13.729Z,27.89
2017-09-23T10:30:13.756Z,28.49
2017-09-23T10:31:13.945Z,29.32
2017-09-23T10:32:13.726Z,30.19
2017-09-23T10:33:13.732Z,30.13
2017-09-23T10:34:15.113Z,30.16
2017-09-23T10:35:13.774Z,30.23
2017-09-23T10:36:13.703Z,30.24
2017-09-23T10:37:13.701Z,29.57
2017-09-23T10:38:13.744Z,28.81
2017-09-23T10:39:13.703Z,28.04
2017-09-23T10:40:13.869Z,27.40
2017-09-23T10:41:14.670Z,27.00
2017-09-23T10:42:13.746Z,27.51
2017-09-23T10:43:13.687Z,28.35
2017-09-23T10:44:13.669Z,28.81
2017-09-23T10:45:13.676Z,29.04
2017-09-23T10:46:13.691Z,30.03
2017-09-23T10:47:14.021Z,30.72
2017-09-23T10:48:13.652Z,30.78
2017-09-23T10:49:13.673Z,30.59
2017-09-23T10:50:13.666Z,30.78
2017-09-23T10:51:13.669Z,31.15
2017-09-23T10:52:13.643Z,30.90
2017-09-23T10:53:13.664Z,30.47
2017-09-23T10:54:13.660Z,30.13
2017-09-23T10:55:13.654Z,29.93
2017-09-23T10:56:15.777Z,29.82
2017-09-23T10:57:13.631Z,29.78
2017-09-23T10:58:14.259Z,29.95
2017-09-23T10:59:13.737Z,30.59
2017-09-23T11:00:14.618Z,31.55
2017-09-23T11:01:13.642Z,32.43
2017-09-23T11:02:13.640Z,32.67
2017-09-23T11:03:14.436Z,32.49
2017-09-23T11:04:13.610Z,32.53
2017-09-23T11:05:13.599Z,32.74
2017-09-23T11:06:13.641Z,32.74
2017-09-23T11:07:13.606Z,32.74
2017-09-23T11:08:13.588Z,33.36
2017-09-23T11:09:13.634Z,33.58
2017-09-23T11:10:13.597Z,33.14
2017-09-23T11:11:13.601Z,33.08
2017-09-23T11:12:13.654Z,33.86
2017-09-23T11:13:13.623Z,34.61
2017-09-23T11:14:13.585Z,35.05
2017-09-23T11:15:13.664Z,35.56
2017-09-23T11:16:13.597Z,36.25
2017-09-23T11:17:14.455Z,36.72
2017-09-23T11:18:13.576Z,36.37
2017-09-23T11:19:13.582Z,35.33
2017-09-23T11:20:13.590Z,34.29
2017-09-23T11:21:13.592Z,33.32
2017-09-23T11:22:13.588Z,32.36
2017-09-23T11:23:13.603Z,31.84
2017-09-23T11:24:13.637Z,31.24
2017-09-23T11:25:13.567Z,30.66
2017-09-23T11:26:13.563Z,30.27
2017-09-23T11:27:13.584Z,29.91
2017-09-23T11:28:13.575Z,30.40
2017-09-23T11:29:13.591Z,31.40
2017-09-23T11:30:13.552Z,32.64
2017-09-23T11:31:13.569Z,33.59
2017-09-23T11:32:13.840Z,34.38
2017-09-23T11:33:13.704Z,35.14
2017-09-23T11:34:13.572Z,35.04
2017-09-23T11:35:13.567Z,34.14
2017-09-23T11:36:13.570Z,32.89
2017-09-23T11:37:13.566Z,31.89
2017-09-23T11:38:14.461Z,31.07
2017-09-23T11:39:13.558Z,30.24
2017-09-23T11:40:13.549Z,29.47
2017-09-23T11:41:13.573Z,28.75
2017-09-23T11:42:13.539Z,28.19
2017-09-23T11:43:13.533Z,27.59
2017-09-23T11:44:13.559Z,27.26
2017-09-23T11:45:13.560Z,27.00
2017-09-23T11:46:13.560Z,26.74
2017-09-23T11:47:13.550Z,26.52
2017-09-23T11:48:13.538Z,26.43
2017-09-23T11:49:13.525Z,26.25
2017-09-23T11:50:13.589Z,26.02
2017-09-23T11:51:13.511Z,25.81
2017-09-23T11:52:13.508Z,25.44
2017-09-23T11:53:13.493Z,25.55
2017-09-23T11:54:13.535Z,26.74
2017-09-23T11:55:13.498Z,28.35
2017-09-23T11:56:13.486Z,29.88
2017-09-23T11:57:13.481Z,31.07
2017-09-23T11:58:13.476Z,32.09
2017-09-23T11:59:13.518Z,33.08
2017-09-23T12:00:13.456Z,34.03
2017-09-23T12:01:13.728Z,34.88
2017-09-23T12:04:33.818Z,36.51
2017-09-23T12:05:33.881Z,36.83
2017-09-23T12:06:33.868Z,37.40
2017-09-23T12:07:34.421Z,37.93
2017-09-23T12:08:33.770Z,38.14
2017-09-23T12:09:33.636Z,38.52
2017-09-23T12:10:33.670Z,38.95
2017-09-23T12:11:33.426Z,39.19
2017-09-23T12:12:33.447Z,39.18
2017-09-23T12:13:33.421Z,38.87
2017-09-23T12:14:33.427Z,38.61
2017-09-23T12:15:33.430Z,38.43
2017-09-23T12:16:33.457Z,38.34
2017-09-23T12:17:33.450Z,37.87
2017-09-23T12:18:33.472Z,36.92
2017-09-23T12:19:33.440Z,36.07
2017-09-23T12:20:33.448Z,35.95
2017-09-23T12:21:33.443Z,36.04
2017-09-23T12:22:33.429Z,36.35
2017-09-23T12:23:33.431Z,36.89
2017-09-23T12:24:33.438Z,37.29
2017-09-23T12:25:33.439Z,37.35
2017-09-23T12:26:33.476Z,36.83
2017-09-23T12:27:33.459Z,35.86
2017-09-23T12:28:33.441Z,34.64
2017-09-23T12:29:33.465Z,33.68
2017-09-23T12:30:33.521Z,32.78
2017-09-23T12:31:33.451Z,31.81
2017-09-23T12:32:33.459Z,30.80
2017-09-23T12:33:33.489Z,29.93
2017-09-23T12:34:33.446Z,29.17
2017-09-23T12:35:33.467Z,28.67
2017-09-23T12:36:33.458Z,28.25
2017-09-23T12:37:33.449Z,27.98
2017-09-23T12:38:33.455Z,27.86
2017-09-23T12:39:33.596Z,28.39
2017-09-23T12:40:33.498Z,29.36
2017-09-23T12:41:33.519Z,30.15
2017-09-23T12:42:33.430Z,30.94
2017-09-23T12:43:33.428Z,31.94
2017-09-23T12:44:33.430Z,32.92
2017-09-23T12:45:33.423Z,33.84
2017-09-23T12:46:33.420Z,34.45
2017-09-23T12:47:33.431Z,35.07
2017-09-23T12:48:33.428Z,35.00
2017-09-23T12:49:33.424Z,34.95
2017-09-23T12:50:33.435Z,35.12
2017-09-23T12:51:33.444Z,34.67
2017-09-23T12:52:33.425Z,33.84
2017-09-23T12:53:33.418Z,33.59
2017-09-23T12:54:33.459Z,33.74
2017-09-23T12:55:33.428Z,34.35